createdAt,value
2023-02-28T00:00:40.400Z,58.88
2023-02-28T00:03:08.131Z,57.80
2023-02-28T00:05:36.190Z,59.06
2023-02-28T00:08:04.016Z,59.29
2023-02-28T00:10:33.724Z,58.06
2023-02-28T00:13:03.862Z,59.05
2023-02-28T00:15:31.774Z,58.86
2023-02-28T00:17:59.620Z,59.04
2023-02-28T00:20:27.744Z,60.46
2023-02-28T00:22:55.950Z,60.40
2023-02-28T00:25:27.327Z,60.96
2023-02-28T00:27:56.549Z,60.52
2023-02-28T00:30:25.292Z,60.94
2023-02-28T00:32:53.221Z,61.35
2023-02-28T00:35:20.968Z,60.40
2023-02-28T00:37:51.386Z,61.37
2023-02-28T00:40:19.406Z,61.36
2023-02-28T00:42:49.522Z,62.32
2023-02-28T00:45:18.802Z,61.82
2023-02-28T00:47:47.402Z,62.85
2023-02-28T00:50:15.524Z,63.42
2023-02-28T00:52:43.295Z,62.22
2023-02-28T00:55:11.512Z,62.65
2023-02-28T00:57:39.693Z,62.41
2023-02-28T01:00:08.444Z,62.66
2023-02-28T01:02:37.597Z,63.28
2023-02-28T01:05:06.094Z,62.84
2023-02-28T01:07:33.855Z,64.04
2023-02-28T01:10:01.591Z,63.35
2023-02-28T01:12:30.926Z,65.16
2023-02-28T01:14:59.767Z,64.16
2023-02-28T01:17:27.794Z,63.61
2023-02-28T01:19:57.489Z,63.27
2023-02-28T01:22:26.621Z,65.83
2023-02-28T01:24:55.088Z,65.06
2023-02-28T01:27:22.993Z,65.81
2023-02-28T01:29:52.301Z,66.17
2023-02-28T01:32:20.094Z,66.65
2023-02-28T01:34:47.856Z,67.19
2023-02-28T01:37:16.942Z,67.14
2023-02-28T01:39:45.470Z,67.18
2023-02-28T01:42:15.482Z,66.92
2023-02-28T01:45:20.514Z,67.08
2023-02-28T01:47:52.156Z,66.10
2023-02-28T01:50:24.539Z,66.52
2023-02-28T01:52:57.556Z,67.07
2023-02-28T01:55:29.538Z,68.44
2023-02-28T01:58:04.036Z,68.44
2023-02-28T02:00:33.522Z,69.12
2023-02-28T02:03:06.910Z,68.93
2023-02-28T02:05:35.479Z,69.32
2023-02-28T02:08:08.667Z,69.04
2023-02-28T02:10:43.324Z,68.98
2023-02-28T02:13:21.985Z,68.80
2023-02-28T02:16:02.963Z,70.75
2023-02-28T02:18:42.723Z,71.30
2023-02-28T02:21:34.458Z,72.00
2023-02-28T02:24:43.165Z,71.32
2023-02-28T02:27:25.641Z,71.36
2023-02-28T02:30:29.085Z,71.96
2023-02-28T02:33:38.217Z,71.65
2023-02-28T02:36:11.905Z,71.44
2023-02-28T02:38:48.896Z,71.64
2023-02-28T02:41:24.368Z,71.25
2023-02-28T02:43:54.663Z,69.39
2023-02-28T02:46:25.498Z,69.99
2023-02-28T02:48:55.099Z,70.05
2023-02-28T02:51:26.160Z,71.29
2023-02-28T02:53:59.845Z,71.50
2023-02-28T02:56:31.033Z,71.27
2023-02-28T02:59:04.201Z,70.74
2023-02-28T03:01:34.429Z,70.53
2023-02-28T03:04:06.936Z,71.87
2023-02-28T03:06:36.356Z,70.71
2023-02-28T03:09:05.856Z,71.52
2023-02-28T03:11:37.190Z,72.01
2023-02-28T03:14:28.066Z,71.88
2023-02-28T03:17:10.520Z,71.58
2023-02-28T03:20:05.542Z,71.84
2023-02-28T03:22:50.484Z,72.13
2023-02-28T03:25:29.138Z,71.68
2023-02-28T03:28:05.334Z,71.61
2023-02-28T03:30:42.474Z,73.06
2023-02-28T03:33:14.669Z,72.12
2023-02-28T03:35:46.605Z,72.57
2023-02-28T03:38:20.446Z,71.64
2023-02-28T03:40:52.608Z,71.86
2023-02-28T03:43:24.979Z,71.43
2023-02-28T03:45:54.552Z,72.20
2023-02-28T03:48:28.737Z,72.16
2023-02-28T03:51:00.483Z,71.91
2023-02-28T03:53:32.966Z,71.69
2023-02-28T03:56:09.339Z,70.80
2023-02-28T03:58:44.145Z,71.67
2023-02-28T04:01:17.384Z,71.68
2023-02-28T04:03:45.285Z,72.13
2023-02-28T04:06:19.498Z,71.61
2023-02-28T04:08:49.127Z,70.59
2023-02-28T04:11:24.461Z,71.21
2023-02-28T04:13:52.216Z,71.27
2023-02-28T04:16:33.781Z,71.66
2023-02-28T04:19:04.334Z,71.15
2023-02-28T04:21:33.165Z,71.38
2023-02-28T04:24:05.530Z,72.17
2023-02-28T04:26:34.406Z,72.19
2023-02-28T04:29:05.784Z,71.90
2023-02-28T04:31:34.184Z,71.97
2023-02-28T04:34:02.218Z,71.73
2023-02-28T04:36:30.288Z,71.90
2023-02-28T04:38:58.520Z,72.29
2023-02-28T04:41:29.619Z,71.54
2023-02-28T04:43:58.725Z,71.37
2023-02-28T04:46:26.798Z,71.12
2023-02-28T04:48:56.885Z,71.86
2023-02-28T04:51:26.832Z,72.11
2023-02-28T04:53:55.252Z,71.73
2023-02-28T04:56:23.887Z,71.90
2023-02-28T04:58:54.139Z,71.61
2023-02-28T05:01:25.878Z,72.14
2023-02-28T05:03:56.179Z,71.80
2023-02-28T05:06:25.658Z,71.95
2023-02-28T05:09:13.802Z,70.93
2023-02-28T05:11:42.794Z,71.81
2023-02-28T05:14:15.628Z,71.77
2023-02-28T05:16:43.775Z,72.40
2023-02-28T05:19:11.654Z,72.00
2023-02-28T05:21:41.754Z,71.85
2023-02-28T05:24:12.214Z,72.05
2023-02-28T05:26:43.247Z,71.72
2023-02-28T05:29:13.345Z,71.00
2023-02-28T05:31:41.273Z,72.00
2023-02-28T05:34:09.100Z,71.37
2023-02-28T05:36:38.976Z,71.95
2023-02-28T05:39:07.282Z,72.70
2023-02-28T05:41:35.130Z,71.81
2023-02-28T05:44:02.902Z,71.62
2023-02-28T05:46:32.026Z,72.12
2023-02-28T05:49:01.167Z,70.71
2023-02-28T05:51:29.311Z,71.74
2023-02-28T05:54:00.977Z,71.73
2023-02-28T05:56:28.813Z,71.72
2023-02-28T05:58:56.688Z,72.05
2023-02-28T06:01:49.550Z,71.43
2023-02-28T06:04:31.480Z,70.76
2023-02-28T06:07:00.000Z,71.40
2023-02-28T06:09:27.788Z,71.54
2023-02-28T06:11:55.551Z,71.22
2023-02-28T06:14:23.350Z,71.08
2023-02-28T06:16:51.266Z,70.32
2023-02-28T06:19:20.312Z,70.83
2023-02-28T06:21:51.776Z,71.40
2023-02-28T06:24:19.644Z,70.45
2023-02-28T06:26:47.640Z,71.00
2023-02-28T06:29:19.297Z,70.65
2023-02-28T06:31:48.268Z,71.11
2023-02-28T06:34:16.137Z,71.10
2023-02-28T06:36:45.654Z,70.07
2023-02-28T06:39:13.394Z,70.71
2023-02-28T06:41:54.256Z,70.79
2023-02-28T06:44:24.435Z,70.33
2023-02-28T06:46:52.586Z,70.45
2023-02-28T06:49:20.394Z,70.45
2023-02-28T06:51:49.542Z,71.07
2023-02-28T06:54:17.346Z,70.43
2023-02-28T06:56:45.104Z,70.40
2023-02-28T06:59:15.432Z,70.89
2023-02-28T07:01:43.194Z,70.25
2023-02-28T07:04:11.055Z,70.61
2023-02-28T07:06:38.874Z,70.36
2023-02-28T07:09:08.218Z,70.49
2023-02-28T07:11:36.129Z,70.51
2023-02-28T07:14:03.960Z,70.38
2023-02-28T07:16:31.731Z,70.61
2023-02-28T07:18:59.450Z,71.19
2023-02-28T07:21:27.352Z,70.64
2023-02-28T07:23:55.366Z,70.90
2023-02-28T07:26:24.560Z,70.80
2023-02-28T07:28:55.294Z,70.26
2023-02-28T07:31:23.210Z,70.75
2023-02-28T07:33:54.479Z,70.56
2023-02-28T07:36:22.204Z,70.57
2023-02-28T07:38:51.742Z,70.27
2023-02-28T07:41:20.945Z,70.28
2023-02-28T07:43:50.311Z,69.99
2023-02-28T07:46:21.295Z,70.40
2023-02-28T07:48:49.118Z,70.51
2023-02-28T07:51:16.973Z,69.80
2023-02-28T07:53:47.520Z,70.36
2023-02-28T07:56:15.264Z,69.89
2023-02-28T07:58:43.039Z,69.39
2023-02-28T08:01:12.945Z,69.89
2023-02-28T08:03:42.308Z,69.36
2023-02-28T08:06:18.091Z,69.53
2023-02-28T08:08:45.808Z,69.60
2023-02-28T08:11:13.636Z,69.15
2023-02-28T08:13:43.250Z,68.20
2023-02-28T08:16:15.345Z,67.86
2023-02-28T08:18:43.296Z,67.85
2023-02-28T08:21:12.044Z,68.70
2023-02-28T08:23:40.050Z,68.93
2023-02-28T08:26:10.314Z,67.70
2023-02-28T08:28:38.046Z,68.29
2023-02-28T08:31:14.459Z,68.25
2023-02-28T08:33:43.214Z,68.86
2023-02-28T08:36:13.996Z,68.84
2023-02-28T08:38:41.907Z,69.39
2023-02-28T08:41:12.206Z,67.62
2023-02-28T08:43:40.550Z,67.97
2023-02-28T08:46:09.490Z,67.47
2023-02-28T08:48:40.940Z,66.53
2023-02-28T08:51:11.523Z,67.78
2023-02-28T08:53:40.543Z,67.26
2023-02-28T08:56:10.317Z,66.15
2023-02-28T08:58:40.306Z,66.71
2023-02-28T09:01:12.934Z,66.52
2023-02-28T09:03:42.969Z,66.09
2023-02-28T09:06:12.643Z,65.37
2023-02-28T09:08:41.432Z,65.54
2023-02-28T09:11:09.638Z,65.88
2023-02-28T09:13:37.746Z,65.93
2023-02-28T09:16:08.330Z,66.41
2023-02-28T09:18:36.953Z,66.37
2023-02-28T09:21:07.144Z,65.59
2023-02-28T09:23:34.992Z,64.86
2023-02-28T09:26:03.017Z,64.92
2023-02-28T09:28:30.974Z,63.45
2023-02-28T09:30:59.855Z,61.95
2023-02-28T09:33:28.565Z,61.71
2023-02-28T09:36:01.390Z,61.74
2023-02-28T09:38:30.569Z,61.17
2023-02-28T09:41:00.376Z,60.10
2023-02-28T09:43:31.156Z,58.18
2023-02-28T09:46:11.911Z,58.18
2023-02-28T09:48:46.692Z,58.69
2023-02-28T09:51:25.972Z,57.33
2023-02-28T09:54:01.431Z,56.72
2023-02-28T09:56:34.259Z,56.57
2023-02-28T09:59:09.512Z,55.85
2023-02-28T10:01:41.412Z,56.71
2023-02-28T10:04:18.226Z,56.79
2023-02-28T10:06:50.664Z,57.28
2023-02-28T10:09:25.096Z,55.42
2023-02-28T10:11:56.065Z,55.42
2023-02-28T10:14:27.964Z,55.58
2023-02-28T10:16:59.905Z,54.79
2023-02-28T10:19:33.793Z,55.48
2023-02-28T10:22:04.524Z,54.91
2023-02-28T10:24:38.056Z,55.26
2023-02-28T10:27:16.092Z,56.82
2023-02-28T10:29:46.407Z,56.84
2023-02-28T10:32:18.305Z,55.62
2023-02-28T10:34:46.618Z,54.88
2023-02-28T10:37:16.814Z,53.77
2023-02-28T10:39:47.886Z,54.65
2023-02-28T10:42:26.892Z,54.37
2023-02-28T10:45:12.684Z,53.67
2023-02-28T10:47:53.897Z,54.32
2023-02-28T10:50:41.224Z,54.14
2023-02-28T10:53:26.880Z,52.49
2023-02-28T10:56:03.759Z,52.83
2023-02-28T10:58:33.824Z,53.12
2023-02-28T11:01:01.979Z,52.72
2023-02-28T11:03:35.326Z,51.85
2023-02-28T11:06:09.869Z,53.46
2023-02-28T11:08:46.724Z,51.48
2023-02-28T11:11:16.597Z,53.76
2023-02-28T11:13:46.863Z,52.04
2023-02-28T11:16:17.292Z,51.11
2023-02-28T11:18:50.807Z,51.44
2023-02-28T11:21:23.470Z,51.66
2023-02-28T11:23:53.719Z,51.19
2023-02-28T11:26:42.110Z,50.58
2023-02-28T11:29:20.030Z,51.99
2023-02-28T11:32:09.542Z,52.37
2023-02-28T11:34:38.936Z,52.51
2023-02-28T11:37:14.576Z,51.97
2023-02-28T11:39:42.545Z,53.09
2023-02-28T11:42:32.865Z,53.23
2023-02-28T11:45:21.368Z,53.22
2023-02-28T11:47:55.719Z,52.88
2023-02-28T11:50:39.502Z,51.73
2023-02-28T11:53:16.353Z,50.09
2023-02-28T11:55:51.250Z,50.06
2023-02-28T11:58:49.685Z,49.36
2023-02-28T12:01:29.023Z,48.77
2023-02-28T12:04:06.462Z,49.25
2023-02-28T12:06:40.841Z,49.52
2023-02-28T12:09:23.258Z,49.33
2023-02-28T12:11:56.232Z,48.75
2023-02-28T12:14:51.908Z,48.54
2023-02-28T12:17:34.356Z,48.04
2023-02-28T12:20:13.098Z,46.99
2023-02-28T12:22:50.693Z,46.63
2023-02-28T12:25:45.850Z,48.42
2023-02-28T12:28:16.808Z,46.92
2023-02-28T12:30:52.992Z,46.12
2023-02-28T12:33:24.721Z,46.48
2023-02-28T12:35:57.964Z,45.98
2023-02-28T12:38:29.233Z,45.08
2023-02-28T12:41:01.753Z,46.44
2023-02-28T12:43:35.283Z,45.07
2023-02-28T12:46:12.832Z,43.78
2023-02-28T12:48:47.216Z,43.91
2023-02-28T12:51:17.629Z,43.65
2023-02-28T12:53:56.660Z,43.89
2023-02-28T12:56:35.372Z,43.41
2023-02-28T12:59:12.585Z,44.84
2023-02-28T13:02:03.167Z,43.05
2023-02-28T13:04:55.868Z,42.73
2023-02-28T13:07:47.634Z,43.61
2023-02-28T13:10:17.020Z,44.08
2023-02-28T13:12:52.616Z,44.62
2023-02-28T13:15:25.223Z,43.09
2023-02-28T13:17:56.658Z,44.82
2023-02-28T13:20:28.025Z,45.68
2023-02-28T13:22:58.821Z,46.82
2023-02-28T13:25:56.896Z,45.44
2023-02-28T13:29:10.634Z,45.74
2023-02-28T13:32:15.957Z,45.16
2023-02-28T13:35:36.890Z,45.12
2023-02-28T13:38:32.033Z,44.54
2023-02-28T13:41:35.498Z,45.94
2023-02-28T13:44:05.886Z,44.63
2023-02-28T13:46:34.635Z,44.50
2023-02-28T13:49:21.118Z,44.43
2023-02-28T13:51:52.054Z,45.42
2023-02-28T13:54:46.561Z,45.61
2023-02-28T13:57:25.548Z,45.05
2023-02-28T14:00:06.517Z,45.45
2023-02-28T14:03:07.128Z,44.59
2023-02-28T14:05:36.190Z,45.42
2023-02-28T14:08:14.788Z,46.28
2023-02-28T14:10:46.387Z,44.00
2023-02-28T14:13:40.329Z,44.93
2023-02-28T14:16:10.526Z,45.83
2023-02-28T14:18:40.315Z,44.36
2023-02-28T14:24:40.710Z,45.19
2023-02-28T14:27:17.319Z,44.77
2023-02-28T14:30:17.524Z,45.77
2023-02-28T14:32:53.297Z,45.31
2023-02-28T14:35:45.192Z,45.86
2023-02-28T14:38:18.996Z,44.73
2023-02-28T14:40:49.775Z,45.57
2023-02-28T14:43:23.218Z,46.27
2023-02-28T14:45:57.496Z,45.83
2023-02-28T14:48:26.963Z,45.78
2023-02-28T14:50:58.383Z,45.42
2023-02-28T14:53:31.373Z,45.42
2023-02-28T14:56:01.282Z,45.32
2023-02-28T14:58:31.389Z,46.40
2023-02-28T15:01:01.292Z,46.45
2023-02-28T15:03:33.955Z,46.38
2023-02-28T15:06:03.285Z,47.04
2023-02-28T15:08:36.079Z,46.43
2023-02-28T15:11:07.314Z,46.58
2023-02-28T15:13:41.728Z,46.59
2023-02-28T15:16:14.267Z,47.16
2023-02-28T15:18:50.295Z,46.50
2023-02-28T15:21:21.411Z,46.68
2023-02-28T15:23:52.802Z,47.39
2023-02-28T15:26:27.993Z,47.02
2023-02-28T15:29:01.476Z,47.09
2023-02-28T15:31:43.743Z,47.14
2023-02-28T15:34:21.889Z,48.11
2023-02-28T15:36:51.072Z,47.78
2023-02-28T15:39:23.737Z,48.33
2023-02-28T15:41:53.062Z,48.34
2023-02-28T15:44:36.947Z,48.67
2023-02-28T15:47:08.625Z,47.87
2023-02-28T15:49:45.284Z,48.76
2023-02-28T15:52:17.844Z,48.96
2023-02-28T15:54:48.106Z,49.26
2023-02-28T15:57:22.534Z,49.03
2023-02-28T15:59:56.555Z,49.44
2023-02-28T16:02:32.948Z,48.89
2023-02-28T16:05:31.520Z,48.73
2023-02-28T16:08:13.307Z,47.98
2023-02-28T16:10:41.366Z,48.37
2023-02-28T16:13:16.145Z,48.38
2023-02-28T16:15:45.762Z,48.74
2023-02-28T16:18:14.654Z,49.12
2023-02-28T16:20:42.787Z,48.86
2023-02-28T16:23:10.583Z,48.80
2023-02-28T16:25:43.685Z,49.41
2023-02-28T16:28:20.615Z,49.26
2023-02-28T16:30:48.944Z,50.08
2023-02-28T16:33:16.921Z,50.43
2023-02-28T16:35:44.642Z,50.56
2023-02-28T16:38:12.545Z,50.62
2023-02-28T16:40:40.457Z,50.43
2023-02-28T16:43:15.748Z,50.75
2023-02-28T16:45:45.279Z,50.83
2023-02-28T16:48:15.682Z,51.39
2023-02-28T16:50:45.404Z,51.33
2023-02-28T16:53:14.456Z,52.05
2023-02-28T16:55:42.620Z,52.41
2023-02-28T16:58:16.254Z,52.94
2023-02-28T17:00:45.685Z,53.62
2023-02-28T17:03:32.078Z,53.75
2023-02-28T17:06:00.369Z,54.19
2023-02-28T17:08:30.236Z,54.60
2023-02-28T17:10:58.151Z,54.53
2023-02-28T17:13:25.915Z,54.97
2023-02-28T17:15:55.134Z,54.76
2023-02-28T17:18:23.072Z,55.08
2023-02-28T17:20:50.896Z,55.48
2023-02-28T17:23:18.671Z,55.75
2023-02-28T17:25:56.255Z,55.39
2023-02-28T17:28:25.194Z,56.73
2023-02-28T17:30:53.095Z,56.00
2023-02-28T17:33:22.349Z,55.02
2023-02-28T17:35:50.216Z,55.82
2023-02-28T17:38:19.492Z,55.74
2023-02-28T17:40:47.470Z,55.24
2023-02-28T17:43:15.718Z,55.16
2023-02-28T17:45:43.653Z,54.94
2023-02-28T17:48:13.223Z,54.10
2023-02-28T17:50:42.740Z,54.79
2023-02-28T17:53:10.542Z,54.79
2023-02-28T17:55:38.570Z,55.16
2023-02-28T17:58:06.389Z,55.69
2023-02-28T18:00:34.410Z,55.33
2023-02-28T18:03:02.365Z,55.76
2023-02-28T18:05:30.961Z,55.94
2023-02-28T18:08:00.916Z,55.95
2023-02-28T18:10:28.741Z,56.09
2023-02-28T18:12:56.933Z,55.35
2023-02-28T18:15:24.884Z,56.30
2023-02-28T18:17:53.015Z,56.78
2023-02-28T18:20:21.666Z,56.67
2023-02-28T18:22:49.489Z,56.29
2023-02-28T18:25:18.794Z,56.44
2023-02-28T18:27:58.568Z,56.55
2023-02-28T18:30:30.346Z,55.75
2023-02-28T18:32:58.848Z,56.03
2023-02-28T18:35:36.386Z,56.57
2023-02-28T18:38:09.893Z,56.03
2023-02-28T18:40:39.754Z,56.80
2023-02-28T18:43:08.084Z,57.00
2023-02-28T18:45:38.445Z,57.72
2023-02-28T18:48:06.610Z,57.93
2023-02-28T18:50:34.464Z,58.52
2023-02-28T18:53:03.367Z,58.71
2023-02-28T18:55:32.591Z,58.41
2023-02-28T18:58:01.817Z,58.80
2023-02-28T19:00:29.591Z,59.04
2023-02-28T19:02:57.337Z,58.91
2023-02-28T19:05:25.227Z,59.70
2023-02-28T19:07:52.999Z,59.96
2023-02-28T19:10:20.923Z,60.09
2023-02-28T19:12:48.805Z,59.57
2023-02-28T19:15:17.942Z,60.18
2023-02-28T19:17:46.246Z,59.68
2023-02-28T19:20:14.649Z,60.18
2023-02-28T19:22:42.846Z,60.04
2023-02-28T19:25:11.174Z,60.45
2023-02-28T19:27:41.024Z,60.40
2023-02-28T19:30:13.167Z,60.78
2023-02-28T19:32:43.006Z,61.17
2023-02-28T19:35:10.836Z,61.06
2023-02-28T19:37:39.886Z,61.05
2023-02-28T19:40:09.778Z,61.44
2023-02-28T19:42:38.030Z,61.45
2023-02-28T19:45:06.945Z,61.59
2023-02-28T19:47:34.775Z,61.44
2023-02-28T19:50:06.339Z,61.25
2023-02-28T19:52:34.784Z,61.66
2023-02-28T19:55:02.590Z,62.22
2023-02-28T19:57:30.377Z,62.12
2023-02-28T19:59:58.179Z,62.72
2023-02-28T20:02:26.284Z,63.25
2023-02-28T20:04:58.717Z,62.34
2023-02-28T20:07:29.843Z,62.70
2023-02-28T20:09:57.613Z,63.24
2023-02-28T20:12:26.171Z,64.07
2023-02-28T20:14:56.154Z,64.63
2023-02-28T20:17:24.735Z,63.96
2023-02-28T20:19:52.654Z,64.79
2023-02-28T20:22:20.426Z,65.59
2023-02-28T20:24:49.952Z,65.07
2023-02-28T20:27:17.918Z,65.10
2023-02-28T20:29:45.647Z,65.11
2023-02-28T20:32:13.847Z,65.02
2023-02-28T20:34:41.951Z,65.40
2023-02-28T20:37:09.798Z,65.76
2023-02-28T20:39:37.631Z,65.61
2023-02-28T20:42:07.335Z,65.74
2023-02-28T20:44:35.159Z,65.75
2023-02-28T20:47:03.735Z,65.09
2023-02-28T20:49:31.625Z,64.84
2023-02-28T20:51:59.457Z,65.39
2023-02-28T20:54:28.646Z,65.62
2023-02-28T20:56:56.449Z,66.09
2023-02-28T20:59:26.330Z,65.56
2023-02-28T21:01:56.188Z,65.53
2023-02-28T21:04:24.250Z,65.38
2023-02-28T21:06:54.361Z,65.36
2023-02-28T21:09:22.193Z,65.02
2023-02-28T21:11:54.495Z,65.79
2023-02-28T21:14:23.831Z,66.38
2023-02-28T21:16:52.998Z,66.08
2023-02-28T21:19:20.924Z,65.54
2023-02-28T21:21:51.280Z,65.30
2023-02-28T21:24:21.247Z,65.59
2023-02-28T21:26:49.087Z,64.78
2023-02-28T21:29:17.269Z,63.74
2023-02-28T21:31:45.274Z,63.11
2023-02-28T21:34:14.994Z,62.59
2023-02-28T21:36:47.304Z,62.50
2023-02-28T21:39:17.076Z,62.91
2023-02-28T21:41:45.199Z,63.25
2023-02-28T21:44:18.209Z,63.60
2023-02-28T21:46:47.184Z,64.78
2023-02-28T21:49:19.662Z,64.23
2023-02-28T21:51:49.933Z,63.26
2023-02-28T21:54:18.007Z,62.83
2023-02-28T21:56:45.778Z,62.01
2023-02-28T21:59:13.735Z,62.00
2023-02-28T22:01:43.878Z,62.11
2023-02-28T22:04:21.358Z,62.24
2023-02-28T22:06:55.109Z,62.63
2023-02-28T22:09:23.214Z,62.25
2023-02-28T22:11:51.589Z,64.39
2023-02-28T22:14:20.009Z,65.01
2023-02-28T22:16:52.032Z,64.46
2023-02-28T22:19:24.900Z,64.16
2023-02-28T22:21:54.741Z,64.01
2023-02-28T22:24:24.323Z,63.52
2023-02-28T22:26:52.675Z,63.24
2023-02-28T22:29:21.031Z,65.29
2023-02-28T22:31:48.923Z,64.97
2023-02-28T22:34:16.872Z,63.89
2023-02-28T22:36:45.311Z,64.13
2023-02-28T22:39:14.496Z,64.70
2023-02-28T22:41:42.225Z,64.98
2023-02-28T22:44:09.953Z,64.48
2023-02-28T22:46:37.982Z,64.43
2023-02-28T22:49:06.694Z,66.21
2023-02-28T22:51:35.354Z,66.42
2023-02-28T22:54:04.393Z,66.60
2023-02-28T22:56:34.198Z,66.51
2023-02-28T22:59:03.448Z,67.42
2023-02-28T23:01:32.888Z,66.43
2023-02-28T23:04:01.059Z,65.70
2023-02-28T23:06:31.295Z,64.84
2023-02-28T23:09:02.248Z,64.78
2023-02-28T23:11:33.789Z,64.86
2023-02-28T23:14:01.940Z,66.29
2023-02-28T23:16:31.657Z,66.06
2023-02-28T23:19:01.791Z,65.96
2023-02-28T23:21:30.638Z,65.76
2023-02-28T23:23:59.008Z,65.06
2023-02-28T23:26:29.263Z,64.95
2023-02-28T23:28:58.895Z,64.86
2023-02-28T23:31:26.834Z,65.01
2023-02-28T23:33:54.641Z,64.58
2023-02-28T23:36:22.365Z,65.24
2023-02-28T23:38:51.671Z,65.07
2023-02-28T23:41:20.925Z,66.20
2023-02-28T23:43:49.139Z,67.96
2023-02-28T23:46:18.309Z,68.41
2023-02-28T23:48:46.077Z,67.66
2023-02-28T23:51:19.127Z,67.81
2023-02-28T23:53:49.228Z,67.73
2023-02-28T23:56:19.021Z,68.56
2023-02-28T23:58:47.654Z,68.93
